Time;durP1;ratioP1;P1;durP2;ratioP2;P2;SDS_P1;SDS_P2;PMS_P1;PMS_P2;Temp;Humidity;BMP_temperature;BMP_pressure;BME280_temperature;BME280_humidity;BME280_pressure;Samples;Min_cycle;Max_cycle;Signal;HPM_P1;HPM_P2
2024/01/20 00:00:24;;;;;;;1.67;1.60;;;;;;;-8.48;100.00;96959.84;1023628;29;20043;-71
2024/01/20 00:00:55;;;;;;;0.54;0.54;;;;;;;-8.50;100.00;96951.53;1026660;28;20015;-70
2024/01/20 00:01:25;;;;;;;1.95;1.85;;;;;;;-8.51;100.00;96955.81;1031012;28;20018;-69
2024/01/20 00:01:56;;;;;;;0.30;0.30;;;;;;;-8.55;100.00;96956.94;1023230;29;20102;-69
2024/01/20 00:02:26;;;;;;;1.13;0.88;;;;;;;-8.56;100.00;96958.69;1023480;29;20023;-69
2024/01/20 00:02:57;;;;;;;1.23;1.23;;;;;;;-8.62;100.00;96951.50;1023526;28;20023;-69
2024/01/20 00:03:27;;;;;;;2.50;1.35;;;;;;;-8.57;100.00;96957.09;1027543;28;20499;-69
2024/01/20 00:03:57;;;;;;;0.82;0.82;;;;;;;-8.53;100.00;96957.66;1031623;28;20018;-69
2024/01/20 00:04:28;;;;;;;1.45;1.35;;;;;;;-8.57;100.00;96956.28;1027396;28;20074;-70
2024/01/20 00:04:58;;;;;;;0.52;0.52;;;;;;;-8.58;100.00;96955.47;1027632;28;20053;-69
2024/01/20 00:05:29;;;;;;;0.88;0.88;;;;;;;-8.56;100.00;96957.88;1031635;28;20021;-69
2024/01/20 00:06:00;;;;;;;1.10;1.02;;;;;;;-8.54;100.00;96956.06;1031556;28;20237;-69
2024/01/20 00:06:30;;;;;;;2.28;1.60;;;;;;;-8.54;100.00;96958.59;1037005;28;20022;-71
2024/01/20 00:07:01;;;;;;;1.17;1.15;;;;;;;-8.50;100.00;96952.34;1039499;28;20036;-69
2024/01/20 00:07:31;;;;;;;3.03;1.90;;;;;;;-8.50;100.00;96949.00;1031415;28;20027;-69
2024/01/20 00:08:02;;;;;;;2.05;1.95;;;;;;;-8.51;100.00;96949.94;1022927;28;20027;-69
2024/01/20 00:08:32;;;;;;;2.40;2.30;;;;;;;-8.51;100.00;96952.47;1022779;29;20027;-71
2024/01/20 00:09:03;;;;;;;0.70;0.70;;;;;;;-8.49;100.00;96951.41;1023744;28;20630;-69
2024/01/20 00:09:33;;;;;;;1.05;0.98;;;;;;;-8.48;100.00;96952.22;1023749;28;20066;-69
2024/01/20 00:10:10;;;;;;;3.83;1.42;;;;;;;-8.52;100.00;96948.28;1027433;28;20030;-72
2024/01/20 00:10:40;;;;;;;2.48;1.92;;;;;;;-8.53;100.00;96949.22;1024357;28;20034;-71
2024/01/20 00:11:11;;;;;;;0.30;0.30;;;;;;;-8.52;100.00;96949.09;1027695;28;20530;-69
2024/01/20 00:11:41;;;;;;;0.30;0.30;;;;;;;-8.49;100.00;96948.88;1031708;28;20031;-72
2024/01/20 00:12:12;;;;;;;0.30;0.30;;;;;;;-8.49;100.00;96948.88;1038716;28;20025;-71
2024/01/20 00:12:42;;;;;;;1.27;1.17;;;;;;;-8.45;100.00;96942.66;1034736;28;20045;-70
2024/01/20 00:13:13;;;;;;;1.40;1.30;;;;;;;-8.43;100.00;96947.63;1030400;28;20106;-76
2024/01/20 00:13:43;;;;;;;1.45;1.35;;;;;;;-8.48;100.00;96935.25;1030301;28;20059;-71
2024/01/20 00:14:14;;;;;;;0.68;0.68;;;;;;;-8.44;100.00;96946.81;1026374;28;20071;-70
2024/01/20 00:14:44;;;;;;;1.65;1.55;;;;;;;-8.46;100.00;96948.66;1027372;28;20039;-71
2024/01/20 00:15:15;;;;;;;0.63;0.63;;;;;;;-8.43;100.00;96948.41;1023492;29;20055;-72
2024/01/20 00:15:45;;;;;;;0.63;0.63;;;;;;;-8.47;100.00;96944.50;1023529;28;20028;-72
2024/01/20 00:16:16;;;;;;;0.88;0.88;;;;;;;-8.49;100.00;96942.97;1027254;29;20024;-72
2024/01/20 00:16:46;;;;;;;0.45;0.45;;;;;;;-8.52;100.00;96946.56;1022870;29;20032;-71
2024/01/20 00:17:16;;;;;;;0.05;0.05;;;;;;;-8.52;100.00;96936.38;1019379;29;20032;-70
2024/01/20 00:17:47;;;;;;;1.65;1.27;;;;;;;-8.55;100.00;96939.16;1021068;28;20108;-68
2024/01/20 00:18:18;;;;;;;2.67;2.03;;;;;;;-8.53;100.00;96937.31;1030194;28;20035;-71
2024/01/20 00:18:48;;;;;;;0.63;0.63;;;;;;;-8.55;100.00;96934.91;1026995;28;20035;-70
2024/01/20 00:19:19;;;;;;;1.20;1.10;;;;;;;-8.59;100.00;96935.22;1029735;28;20046;-70
2024/01/20 00:19:49;;;;;;;2.85;1.77;;;;;;;-8.55;100.00;96939.16;1024769;28;20169;-71
2024/01/20 00:20:19;;;;;;;3.83;2.17;;;;;;;-8.55;100.00;96932.34;1022524;29;20042;-71
2024/01/20 00:20:50;;;;;;;1.65;1.25;;;;;;;-8.50;100.00;96944.72;1024703;29;20042;-70
2024/01/20 00:21:21;;;;;;;0.82;0.82;;;;;;;-8.56;100.00;96933.25;1024810;28;20035;-71
2024/01/20 00:21:51;;;;;;;0.25;0.25;;;;;;;-8.53;100.00;96931.41;1024439;28;20397;-70
2024/01/20 00:22:21;;;;;;;1.33;1.33;;;;;;;-8.52;100.00;96933.03;1024153;29;20535;-70
2024/01/20 00:22:52;;;;;;;2.10;2.00;;;;;;;-8.55;100.00;96939.16;1023269;29;20039;-68
2024/01/20 00:23:23;;;;;;;1.25;0.80;;;;;;;-8.56;100.00;96938.34;1019818;28;20070;-70
2024/01/20 00:23:53;;;;;;;1.95;1.60;;;;;;;-8.61;100.00;96924.38;1028021;28;20664;-71
2024/01/20 00:24:23;;;;;;;3.92;1.98;;;;;;;-8.55;100.00;96936.59;1031860;28;20033;-69
2024/01/20 00:24:55;;;;;;;0.28;0.28;;;;;;;-8.53;100.00;96939.06;1031717;28;20038;-69
2024/01/20 00:25:28;;;;;;;1.30;0.98;;;;;;;-8.56;100.00;96930.72;1027816;28;20045;-69
2024/01/20 00:25:59;;;;;;;2.08;1.92;;;;;;;-8.50;100.00;96939.63;1031969;28;20084;-70
2024/01/20 00:26:29;;;;;;;0.90;0.90;;;;;;;-8.50;100.00;96934.53;1027760;28;20034;-69
2024/01/20 00:27:00;;;;;;;0.30;0.30;;;;;;;-8.55;100.00;96934.06;1033619;28;20034;-69
2024/01/20 00:27:30;;;;;;;0.52;0.52;;;;;;;-8.60;100.00;96931.06;1027653;28;20857;-69
2024/01/20 00:28:03;;;;;;;0.40;0.40;;;;;;;-8.61;100.00;96935.34;1023513;28;20043;-70
2024/01/20 00:28:33;;;;;;;1.16;0.84;;;;;;;-8.57;100.00;96933.38;1027116;28;20053;-71
2024/01/20 00:29:04;;;;;;;0.70;0.70;;;;;;;-8.60;100.00;96931.06;1024475;28;20039;-70
2024/01/20 00:29:35;;;;;;;1.98;1.65;;;;;;;-8.58;100.00;96940.22;1024358;28;20475;-70
2024/01/20 00:30:06;;;;;;;1.85;1.60;;;;;;;-8.61;100.00;96929.44;1027446;28;20026;-70
2024/01/20 00:30:36;;;;;;;0.88;0.88;;;;;;;-8.56;100.00;96935.78;1027659;28;20058;-70
2024/01/20 00:31:06;;;;;;;0.68;0.68;;;;;;;-8.60;100.00;96928.53;1027510;28;20038;-70
2024/01/20 00:31:37;;;;;;;1.30;1.23;;;;;;;-8.59;100.00;96937.75;1024041;28;20038;-69
2024/01/20 00:32:07;;;;;;;2.10;1.25;;;;;;;-8.59;100.00;96936.03;1031336;28;20027;-70
2024/01/20 00:32:38;;;;;;;0.50;0.50;;;;;;;-8.58;100.00;96934.31;1027347;28;20066;-69
2024/01/20 00:33:08;;;;;;;1.15;1.15;;;;;;;-8.57;100.00;96933.38;1027642;28;20087;-70
2024/01/20 00:33:39;;;;;;;0.55;0.55;;;;;;;-8.61;100.00;96929.44;1029529;28;20697;-70
2024/01/20 00:34:09;;;;;;;1.13;1.02;;;;;;;-8.56;100.00;96937.53;1031653;28;20026;-69
2024/01/20 00:34:40;;;;;;;1.15;1.10;;;;;;;-8.55;100.00;96936.59;1026553;28;20034;-69
2024/01/20 00:35:10;;;;;;;0.43;0.43;;;;;;;-8.54;100.00;96940.78;1024342;28;20027;-69
2024/01/20 00:35:42;;;;;;;3.10;1.15;;;;;;;-8.56;100.00;96935.78;1031651;28;20446;-71
2024/01/20 00:36:12;;;;;;;0.48;0.48;;;;;;;-8.54;100.00;96943.34;1031487;28;20031;-69
2024/01/20 00:36:43;;;;;;;1.88;1.77;;;;;;;-8.55;100.00;96939.16;1035568;28;20604;-70
2024/01/20 00:37:13;;;;;;;0.40;0.40;;;;;;;-8.59;100.00;96933.47;1035391;28;20084;-69
2024/01/20 00:37:44;;;;;;;2.95;2.05;;;;;;;-8.60;100.00;96938.69;1039764;28;20025;-70
2024/01/20 00:38:15;;;;;;;0.57;0.57;;;;;;;-8.60;100.00;96938.69;1039464;28;20485;-71
2024/01/20 00:38:45;;;;;;;3.03;2.67;;;;;;;-8.65;100.00;96933.97;1031069;28;20438;-69
2024/01/20 00:39:16;;;;;;;1.95;1.25;;;;;;;-8.59;100.00;96942.84;1031517;28;20026;-69
2024/01/20 00:39:46;;;;;;;1.75;1.42;;;;;;;-8.60;100.00;96943.78;1023379;29;20035;-69
2024/01/20 00:40:17;;;;;;;1.08;1.08;;;;;;;-8.62;100.00;96946.44;1023321;28;20038;-67
2024/01/20 00:40:47;;;;;;;2.60;1.85;;;;;;;-8.62;100.00;96937.97;1027316;28;20542;-70
2024/01/20 00:41:18;;;;;;;0.30;0.30;;;;;;;-8.63;100.00;96934.63;1027576;28;20037;-70
2024/01/20 00:41:48;;;;;;;0.95;0.95;;;;;;;-8.63;100.00;96944.81;1035597;28;20098;-69
2024/01/20 00:42:19;;;;;;;1.55;1.48;;;;;;;-8.64;100.00;96939.84;1031434;28;20053;-69
2024/01/20 00:42:49;;;;;;;0.75;0.60;;;;;;;-8.64;100.00;96943.19;1029648;28;20035;-69
2024/01/20 00:43:20;;;;;;;4.13;1.30;;;;;;;-8.66;100.00;96937.41;1019310;29;20028;-70
2024/01/20 00:43:50;;;;;;;4.65;3.60;;;;;;;-8.65;100.00;96933.97;1021869;29;20020;-70
2024/01/20 00:44:20;;;;;;;3.25;2.95;;;;;;;-8.66;100.00;96934.06;1027413;28;20035;-69
2024/01/20 00:44:51;;;;;;;1.45;1.45;;;;;;;-8.67;100.00;96935.00;1027779;28;20639;-71
2024/01/20 00:45:21;;;;;;;2.55;1.88;;;;;;;-8.73;100.00;96931.16;1031494;28;20033;-70
2024/01/20 00:45:52;;;;;;;0.73;0.73;;;;;;;-8.68;100.00;96936.72;1027343;28;20027;-70
2024/01/20 00:46:23;;;;;;;1.52;1.23;;;;;;;-8.67;100.00;96927.34;1023262;28;20027;-67
2024/01/20 00:46:53;;;;;;;2.47;2.28;;;;;;;-8.61;100.00;96934.53;1022001;28;20038;-70
2024/01/20 00:47:23;;;;;;;0.22;0.22;;;;;;;-8.62;100.00;96932.91;1019111;28;20035;-67
2024/01/20 00:47:54;;;;;;;1.48;1.38;;;;;;;-8.62;100.00;96933.69;1023234;28;20042;-70
2024/01/20 00:48:24;;;;;;;0.38;0.38;;;;;;;-8.62;100.00;96932.91;1026817;28;20585;-68
2024/01/20 00:48:55;;;;;;;1.05;0.98;;;;;;;-8.59;100.00;96932.66;1031220;28;20037;-71
2024/01/20 00:49:25;;;;;;;0.20;0.10;;;;;;;-8.58;100.00;96934.31;1033147;28;20026;-69
2024/01/20 00:49:56;;;;;;;0.95;0.95;;;;;;;-8.62;100.00;96923.53;1033948;28;20030;-70
2024/01/20 00:50:26;;;;;;;0.85;0.85;;;;;;;-8.54;100.00;96940.78;1027757;28;20019;-69
2024/01/20 00:50:57;;;;;;;0.35;0.35;;;;;;;-8.56;100.00;96938.34;1031383;28;20034;-68
2024/01/20 00:51:27;;;;;;;3.70;1.98;;;;;;;-8.61;100.00;96939.63;1027292;28;20264;-69
2024/01/20 00:51:58;;;;;;;0.90;0.90;;;;;;;-8.63;100.00;96933.84;1027413;28;20037;-69
2024/01/20 00:52:28;;;;;;;0.82;0.82;;;;;;;-8.63;100.00;96939.72;1031252;28;20026;-69
2024/01/20 00:52:59;;;;;;;0.95;0.95;;;;;;;-8.65;100.00;96938.22;1023260;29;20038;-70
2024/01/20 00:53:29;;;;;;;4.32;2.83;;;;;;;-8.64;100.00;96935.56;1023441;29;20020;-70
2024/01/20 00:53:59;;;;;;;0.35;0.35;;;;;;;-8.64;100.00;96934.75;1023161;28;20046;-70
2024/01/20 00:54:30;;;;;;;4.20;2.50;;;;;;;-8.66;100.00;96939.94;1027310;28;20034;-70
2024/01/20 00:55:00;;;;;;;1.33;1.30;;;;;;;-8.69;100.00;96944.44;1035538;28;20777;-69
2024/01/20 00:55:31;;;;;;;3.97;2.05;;;;;;;-8.72;100.00;96937.84;1039240;28;20021;-69
2024/01/20 00:56:01;;;;;;;3.65;2.08;;;;;;;-8.76;100.00;96930.56;1031001;28;20030;-70
2024/01/20 00:56:32;;;;;;;1.73;1.65;;;;;;;-8.73;100.00;96937.97;1023239;29;20031;-71
2024/01/20 00:57:03;;;;;;;0.10;0.10;;;;;;;-8.70;100.00;96940.31;1019322;29;20027;-70
2024/01/20 00:57:33;;;;;;;0.20;0.20;;;;;;;-8.75;100.00;96937.28;1019390;29;20036;-69
2024/01/20 00:58:04;;;;;;;3.90;2.38;;;;;;;-8.73;100.00;96940.53;1022129;28;20035;-69
2024/01/20 00:58:34;;;;;;;1.15;1.05;;;;;;;-8.75;100.00;96939.81;1022631;28;20539;-70
2024/01/20 00:59:04;;;;;;;0.65;0.65;;;;;;;-8.75;100.00;96937.28;1023530;29;20023;-69
2024/01/20 00:59:35;;;;;;;1.60;1.50;;;;;;;-8.84;100.00;96926.06;1024813;28;20022;-70
2024/01/20 01:00:09;;;;;;;0.88;0.88;;;;;;;-8.75;100.00;96937.28;1027156;28;20027;-71
2024/01/20 01:00:39;;;;;;;2.68;0.78;;;;;;;-8.81;100.00;96926.63;1027539;28;20023;-70
2024/01/20 01:01:10;;;;;;;1.55;1.30;;;;;;;-8.71;100.00;96939.50;1026852;28;20030;-69
2024/01/20 01:01:40;;;;;;;0.25;0.22;;;;;;;-8.70;100.00;96935.22;1027484;28;20038;-70
2024/01/20 01:02:11;;;;;;;1.95;1.17;;;;;;;-8.71;100.00;96934.41;1023585;28;20031;-69
2024/01/20 01:02:42;;;;;;;0.70;0.45;;;;;;;-8.74;100.00;96938.91;1023393;28;20027;-69
2024/01/20 01:03:12;;;;;;;0.10;0.10;;;;;;;-8.76;100.00;96936.47;1027218;28;20027;-69
2024/01/20 01:03:42;;;;;;;1.38;1.27;;;;;;;-8.71;100.00;96934.41;1023342;28;20569;-69
2024/01/20 01:04:13;;;;;;;5.40;2.00;;;;;;;-8.75;100.00;96937.28;1027473;28;20048;-69
2024/01/20 01:04:43;;;;;;;1.80;1.08;;;;;;;-8.73;100.00;96935.44;1023108;29;20027;-71
2024/01/20 01:05:14;;;;;;;0.25;0.25;;;;;;;-8.83;100.00;96925.94;1019282;29;20578;-70
2024/01/20 01:05:45;;;;;;;2.05;0.75;;;;;;;-8.76;100.00;96936.47;1023543;29;20035;-70
2024/01/20 01:06:15;;;;;;;0.35;0.35;;;;;;;-8.76;100.00;96938.19;1023883;28;20031;-71
2024/01/20 01:06:46;;;;;;;1.27;0.93;;;;;;;-8.77;100.00;96934.84;1023585;28;20062;-70
2024/01/20 01:07:16;;;;;;;0.38;0.38;;;;;;;-8.74;100.00;96936.38;1027324;28;20039;-70
2024/01/20 01:07:47;;;;;;;1.98;1.88;;;;;;;-8.76;100.00;96930.56;1027122;28;20026;-68
2024/01/20 01:08:17;;;;;;;3.10;1.58;;;;;;;-8.75;100.00;96937.28;1026462;28;20031;-69
2024/01/20 01:08:47;;;;;;;1.05;1.05;;;;;;;-8.72;100.00;96939.59;1027263;28;20034;-69
2024/01/20 01:09:18;;;;;;;0.28;0.28;;;;;;;-8.73;100.00;96940.53;1027283;28;20107;-70
2024/01/20 01:09:48;;;;;;;1.98;1.45;;;;;;;-8.74;100.00;96938.91;1027194;28;20031;-69
2024/01/20 01:10:19;;;;;;;1.27;1.17;;;;;;;-8.74;100.00;96941.47;1026925;28;20101;-70
2024/01/20 01:10:49;;;;;;;2.28;1.80;;;;;;;-8.72;100.00;96937.03;1023220;28;20085;-70
2024/01/20 01:11:20;;;;;;;2.42;2.15;;;;;;;-8.74;100.00;96933.81;1023330;28;20030;-69
2024/01/20 01:11:50;;;;;;;1.42;1.08;;;;;;;-8.72;100.00;96935.31;1023147;28;20442;-69
2024/01/20 01:12:21;;;;;;;4.28;2.28;;;;;;;-8.69;100.00;96939.38;1023301;28;20028;-70
2024/01/20 01:12:51;;;;;;;0.52;0.52;;;;;;;-8.68;100.00;96933.38;1027173;28;20046;-69
2024/01/20 01:13:22;;;;;;;1.70;1.05;;;;;;;-8.69;100.00;96934.28;1030617;28;20509;-70
2024/01/20 01:13:52;;;;;;;1.15;1.13;;;;;;;-8.71;100.00;96939.50;1031442;28;20086;-70
2024/01/20 01:14:23;;;;;;;0.80;0.80;;;;;;;-8.72;100.00;96932.75;1031092;28;20058;-70
2024/01/20 01:14:54;;;;;;;1.55;1.50;;;;;;;-8.72;100.00;96931.97;1031189;28;20481;-69
2024/01/20 01:15:25;;;;;;;0.10;0.10;;;;;;;-8.74;100.00;96934.63;1027397;28;20023;-69
2024/01/20 01:15:55;;;;;;;1.50;1.40;;;;;;;-8.81;100.00;96924.09;1031618;28;20058;-69
2024/01/20 01:16:26;;;;;;;2.78;2.55;;;;;;;-8.75;100.00;96929.63;1027206;28;20541;-71
2024/01/20 01:16:56;;;;;;;1.48;1.35;;;;;;;-8.72;100.00;96925.13;1023671;28;20026;-69
2024/01/20 01:17:27;;;;;;;1.33;0.93;;;;;;;-8.71;100.00;96923.44;1027482;28;20019;-70
2024/01/20 01:17:57;;;;;;;0.98;0.98;;;;;;;-8.73;100.00;96920.19;1024028;28;20664;-70
2024/01/20 01:18:28;;;;;;;0.57;0.57;;;;;;;-8.73;100.00;96920.97;1026908;28;20118;-71
2024/01/20 01:18:58;;;;;;;0.52;0.52;;;;;;;-8.73;100.00;96925.25;1027418;28;20057;-70
2024/01/20 01:19:32;;;;;;;0.52;0.52;;;;;;;-8.75;100.00;96927.09;1023623;28;20026;-70
2024/01/20 01:20:03;;;;;;;1.60;1.50;;;;;;;-8.75;100.00;96927.09;1027804;28;20473;-70
2024/01/20 01:20:33;;;;;;;1.04;0.98;;;;;;;-8.77;100.00;96924.69;1024158;28;20071;-69
2024/01/20 01:21:04;;;;;;;0.93;0.93;;;;;;;-8.77;100.00;96923.88;1023368;28;20082;-69
2024/01/20 01:21:34;;;;;;;0.25;0.25;;;;;;;-8.79;100.00;96924.78;1022938;28;20019;-69
2024/01/20 01:22:05;;;;;;;0.22;0.22;;;;;;;-8.83;100.00;96925.94;1023796;28;20451;-70
2024/01/20 01:22:35;;;;;;;2.17;1.38;;;;;;;-8.83;100.00;96928.47;1023967;28;20027;-69
2024/01/20 01:23:06;;;;;;;1.38;1.35;;;;;;;-8.83;100.00;96935.28;1021997;28;20023;-69
2024/01/20 01:23:36;;;;;;;0.70;0.70;;;;;;;-8.83;100.00;96923.38;1024149;28;20027;-72
2024/01/20 01:24:06;;;;;;;0.32;0.32;;;;;;;-8.81;100.00;96926.63;1023642;28;20024;-70
2024/01/20 01:24:40;;;;;;;0.30;0.30;;;;;;;-8.82;100.00;96921.66;1023724;28;20680;-68
2024/01/20 01:25:10;;;;;;;1.04;1.00;;;;;;;-8.80;100.00;96924.91;1021865;29;20028;-70
2024/01/20 01:25:41;;;;;;;0.95;0.82;;;;;;;-8.75;100.00;96922.84;1019825;29;20024;-71
2024/01/20 01:26:11;;;;;;;0.20;0.20;;;;;;;-8.79;100.00;96931.59;1019673;29;20028;-71
2024/01/20 01:26:41;;;;;;;0.85;0.40;;;;;;;-8.79;100.00;96932.41;1023603;28;20418;-69
2024/01/20 01:27:12;;;;;;;0.10;0.10;;;;;;;-8.80;100.00;96930.78;1019224;29;20030;-71
2024/01/20 01:27:42;;;;;;;1.38;1.27;;;;;;;-8.80;100.00;96930.78;1023311;28;20593;-69
2024/01/20 01:28:13;;;;;;;0.60;0.60;;;;;;;-8.85;100.00;96924.41;1022750;29;20549;-69
2024/01/20 01:28:43;;;;;;;0.93;0.90;;;;;;;-8.82;100.00;96934.38;1015732;29;20116;-70
2024/01/20 01:29:14;;;;;;;0.63;0.63;;;;;;;-8.76;100.00;96940.75;1022936;28;20035;-69
2024/01/20 01:29:44;;;;;;;1.17;0.77;;;;;;;-8.77;100.00;96944.22;1027234;28;20438;-71
2024/01/20 01:30:15;;;;;;;1.77;1.67;;;;;;;-8.76;100.00;96941.56;1027287;28;20031;-70
2024/01/20 01:30:47;;;;;;;0.40;0.40;;;;;;;-8.80;100.00;96940.16;1035381;28;20037;-69
2024/01/20 01:31:17;;;;;;;1.50;0.96;;;;;;;-8.79;100.00;96942.56;1027020;28;20097;-70
2024/01/20 01:31:48;;;;;;;0.20;0.20;;;;;;;-8.80;100.00;96940.97;1023221;28;20054;-70
2024/01/20 01:32:18;;;;;;;0.85;0.85;;;;;;;-8.84;100.00;96944.66;1027372;28;20030;-71
2024/01/20 01:32:49;;;;;;;1.27;1.25;;;;;;;-8.85;100.00;96948.13;1027506;28;20185;-70
2024/01/20 01:33:19;;;;;;;1.15;1.15;;;;;;;-8.88;100.00;96948.34;1031028;28;20029;-69
2024/01/20 01:33:50;;;;;;;3.38;3.08;;;;;;;-8.86;100.00;96945.69;1035066;28;20029;-70
2024/01/20 01:34:20;;;;;;;0.00;0.00;;;;;;;-8.82;100.00;96953.00;1035353;28;20410;-71
2024/01/20 01:34:51;;;;;;;3.72;2.08;;;;;;;-8.82;100.00;96945.38;1031117;28;20030;-69
2024/01/20 01:35:21;;;;;;;0.95;0.95;;;;;;;-8.84;100.00;96954.03;1023059;29;20068;-70
2024/01/20 01:35:51;;;;;;;0.77;0.77;;;;;;;-8.89;100.00;96954.34;1023568;28;20031;-69
2024/01/20 01:36:22;;;;;;;1.23;0.75;;;;;;;-8.94;100.00;96943.72;1023619;28;20027;-70
2024/01/20 01:36:52;;;;;;;1.25;0.75;;;;;;;-8.94;100.00;96945.44;1023502;28;20541;-71
2024/01/20 01:37:23;;;;;;;1.90;1.80;;;;;;;-8.93;100.00;96944.53;1019120;29;20091;-70
2024/01/20 01:37:53;;;;;;;1.15;1.15;;;;;;;-8.94;100.00;96951.34;1019324;29;20087;-70
2024/01/20 01:38:24;;;;;;;2.40;1.55;;;;;;;-8.98;100.00;96944.88;1018993;29;20027;-70
2024/01/20 01:38:54;;;;;;;1.23;0.77;;;;;;;-9.01;100.00;96947.63;1023605;28;20598;-70
2024/01/20 01:39:25;;;;;;;1.15;0.55;;;;;;;-8.95;100.00;96952.28;1027145;28;20026;-71
2024/01/20 01:39:55;;;;;;;0.00;0.00;;;;;;;-8.93;100.00;96949.59;1027380;28;20031;-69
2024/01/20 01:40:26;;;;;;;1.08;0.57;;;;;;;-8.90;100.00;96945.09;1031213;28;20533;-70
2024/01/20 01:40:56;;;;;;;2.05;1.95;;;;;;;-8.92;100.00;96951.22;1027255;28;20179;-70
2024/01/20 01:41:27;;;;;;;0.00;0.00;;;;;;;-8.91;100.00;96958.75;1023427;28;20078;-70
2024/01/20 01:41:57;;;;;;;0.65;0.65;;;;;;;-8.94;100.00;96950.53;1022952;28;20031;-70
2024/01/20 01:42:28;;;;;;;1.55;1.45;;;;;;;-8.97;100.00;96951.56;1023300;29;20091;-70
2024/01/20 01:42:59;;;;;;;0.43;0.43;;;;;;;-9.09;100.00;96932.91;1023109;28;20039;-70
2024/01/20 01:43:29;;;;;;;1.16;0.66;;;;;;;-8.97;100.00;96949.03;1027027;28;20486;-69
2024/01/20 01:44:01;;;;;;;0.40;0.40;;;;;;;-8.98;100.00;96957.56;1030876;28;20026;-69
2024/01/20 01:44:31;;;;;;;3.82;2.68;;;;;;;-8.97;100.00;96958.38;1023153;28;20027;-70
2024/01/20 01:45:02;;;;;;;1.15;1.15;;;;;;;-8.98;100.00;96957.56;1023302;28;20034;-71
2024/01/20 01:45:32;;;;;;;3.20;1.77;;;;;;;-9.00;100.00;96959.41;1022976;28;20126;-70
2024/01/20 01:46:03;;;;;;;1.27;0.45;;;;;;;-8.99;100.00;96955.94;1023041;28;20394;-70
2024/01/20 01:46:33;;;;;;;1.23;1.23;;;;;;;-8.98;100.00;96960.13;1025961;28;20023;-69
2024/01/20 01:47:04;;;;;;;0.70;0.70;;;;;;;-8.98;100.00;96961.84;1022500;29;20035;-69
2024/01/20 01:47:34;;;;;;;0.47;0.47;;;;;;;-8.97;100.00;96968.56;1026828;28;20038;-70
2024/01/20 01:48:05;;;;;;;0.20;0.20;;;;;;;-8.99;100.00;96961.03;1026763;28;20384;-70
2024/01/20 01:48:35;;;;;;;0.28;0.28;;;;;;;-8.99;100.00;96960.22;1022366;28;20180;-69
2024/01/20 01:49:06;;;;;;;1.40;1.27;;;;;;;-8.99;100.00;96967.84;1018766;29;20032;-69
2024/01/20 01:49:36;;;;;;;1.08;1.08;;;;;;;-9.06;100.00;96955.56;1018614;29;20031;-69
2024/01/20 01:50:07;;;;;;;0.30;0.30;;;;;;;-9.08;100.00;96961.72;1018755;29;20028;-70
2024/01/20 01:50:38;;;;;;;1.30;1.13;;;;;;;-9.08;100.00;96964.25;1021080;29;20024;-70
2024/01/20 01:51:08;;;;;;;0.45;0.45;;;;;;;-9.16;100.00;96948.72;1023302;28;20495;-71
2024/01/20 01:51:38;;;;;;;1.40;1.33;;;;;;;-9.08;100.00;96966.78;1027085;28;20034;-71
2024/01/20 01:52:09;;;;;;;1.45;1.35;;;;;;;-9.15;100.00;96955.44;1023752;28;20031;-70
2024/01/20 01:52:40;;;;;;;0.93;0.73;;;;;;;-9.14;100.00;96962.94;1023170;29;20106;-69
2024/01/20 01:53:11;;;;;;;0.28;0.28;;;;;;;-9.18;100.00;96960.75;1023147;29;20027;-70
2024/01/20 01:53:41;;;;;;;0.77;0.77;;;;;;;-9.16;100.00;96964.78;1022961;29;20376;-70
2024/01/20 01:54:12;;;;;;;0.22;0.22;;;;;;;-9.10;100.00;96971.97;1014945;29;20095;-71
2024/01/20 01:54:42;;;;;;;1.10;1.00;;;;;;;-9.10;100.00;96964.34;1015312;29;20079;-69
2024/01/20 01:55:13;;;;;;;1.05;0.95;;;;;;;-9.08;100.00;96970.13;1015341;29;20100;-69
2024/01/20 01:55:44;;;;;;;0.57;0.57;;;;;;;-9.09;100.00;96970.22;1016870;29;20036;-69
2024/01/20 01:56:14;;;;;;;0.98;0.98;;;;;;;-9.09;100.00;96971.03;1021150;29;20054;-69
2024/01/20 01:56:46;;;;;;;0.63;0.63;;;;;;;-9.14;100.00;96967.22;1022925;29;20031;-70
2024/01/20 01:57:16;;;;;;;0.10;0.10;;;;;;;-9.26;100.00;96962.06;1011566;29;20086;-71
2024/01/20 01:57:47;;;;;;;0.75;0.75;;;;;;;-9.28;100.00;96961.41;1016542;28;20562;-70
2024/01/20 01:58:18;;;;;;;0.30;0.30;;;;;;;-9.22;100.00;96977.13;1022709;28;20019;-69
2024/01/20 01:58:48;;;;;;;0.30;0.30;;;;;;;-9.30;100.00;96968.31;1023471;28;20024;-69
2024/01/20 01:59:19;;;;;;;7.35;1.02;;;;;;;-9.34;100.00;96966.91;1027018;28;20022;-70
2024/01/20 01:59:49;;;;;;;1.08;1.08;;;;;;;-9.29;100.00;96967.41;1030871;28;20030;-69
2024/01/20 02:00:20;;;;;;;0.43;0.43;;;;;;;-9.34;100.00;96974.53;1035112;28;20101;-69
2024/01/20 02:00:51;;;;;;;0.98;0.98;;;;;;;-9.40;100.00;96966.53;1030904;28;20105;-69
2024/01/20 02:01:21;;;;;;;0.32;0.32;;;;;;;-9.38;100.00;96975.66;1022738;28;20046;-69
2024/01/20 02:01:52;;;;;;;0.35;0.35;;;;;;;-9.42;100.00;96970.91;1023158;29;20526;-70
2024/01/20 02:02:22;;;;;;;0.10;0.10;;;;;;;-9.43;100.00;96972.63;1019026;29;20067;-69
2024/01/20 02:02:53;;;;;;;0.30;0.30;;;;;;;-9.39;100.00;96975.75;1019110;28;20020;-70
2024/01/20 02:03:23;;;;;;;0.32;0.32;;;;;;;-9.34;100.00;96976.25;1022779;29;20031;-70
2024/01/20 02:03:54;;;;;;;0.10;0.10;;;;;;;-9.51;100.00;96962.22;1019144;28;20027;-69
2024/01/20 02:04:25;;;;;;;0.24;0.24;;;;;;;-9.42;100.00;96978.53;1022777;29;20069;-69
2024/01/20 02:04:55;;;;;;;2.15;0.85;;;;;;;-9.42;100.00;96979.34;1018814;29;20070;-69
2024/01/20 02:05:26;;;;;;;1.73;1.63;;;;;;;-9.48;100.00;96969.63;1018942;29;20568;-69
2024/01/20 02:05:56;;;;;;;0.05;0.05;;;;;;;-9.44;100.00;96970.22;1019270;29;20062;-69
2024/01/20 02:06:27;;;;;;;0.75;0.75;;;;;;;-9.41;100.00;96978.44;1018677;29;20019;-69
2024/01/20 02:06:57;;;;;;;5.70;0.95;;;;;;;-9.35;100.00;96982.28;1015088;29;20020;-70
2024/01/20 02:07:29;;;;;;;1.10;1.10;;;;;;;-9.27;100.00;96978.25;1019142;29;20024;-69
2024/01/20 02:07:59;;;;;;;2.30;2.20;;;;;;;-9.25;100.00;96968.00;1019224;29;20651;-69
2024/01/20 02:08:30;;;;;;;0.20;0.20;;;;;;;-9.24;100.00;96976.44;1022715;28;20017;-71
2024/01/20 02:09:00;;;;;;;0.22;0.22;;;;;;;-9.33;100.00;96968.53;1026816;28;20046;-69
2024/01/20 02:09:30;;;;;;;2.13;1.85;;;;;;;-9.31;100.00;96973.50;1019114;29;20028;-66
2024/01/20 02:10:01;;;;;;;0.13;0.13;;;;;;;-9.36;100.00;96978.91;1022817;28;20023;-69
2024/01/20 02:10:31;;;;;;;0.77;0.77;;;;;;;-9.39;100.00;96974.03;1022781;29;20098;-70
2024/01/20 02:11:02;;;;;;;0.43;0.43;;;;;;;-9.58;100.00;96943.25;1018974;29;20028;-71
2024/01/20 02:11:32;;;;;;;0.95;0.90;;;;;;;-9.43;100.00;96972.63;1019238;28;20019;-70
2024/01/20 02:12:03;;;;;;;0.88;0.80;;;;;;;-9.45;100.00;96969.41;1023302;28;20022;-70
2024/01/20 02:12:34;;;;;;;0.57;0.52;;;;;;;-9.50;100.00;96973.97;1023351;28;20023;-70
2024/01/20 02:13:04;;;;;;;0.20;0.20;;;;;;;-9.46;100.00;96965.22;1027320;28;20026;-70
2024/01/20 02:13:35;;;;;;;1.80;1.70;;;;;;;-9.54;100.00;96970.03;1031075;28;20450;-70
2024/01/20 02:14:06;;;;;;;1.73;0.98;;;;;;;-9.53;100.00;96962.31;1023693;28;20487;-70
2024/01/20 02:14:36;;;;;;;1.48;1.38;;;;;;;-9.48;100.00;96964.53;1027269;28;20505;-69
2024/01/20 02:15:07;;;;;;;0.60;0.60;;;;;;;-9.56;100.00;96957.44;1019083;29;20054;-69
2024/01/20 02:15:37;;;;;;;2.13;1.65;;;;;;;-9.60;100.00;96952.69;1019386;29;20024;-70
2024/01/20 02:16:08;;;;;;;0.20;0.20;;;;;;;-9.58;100.00;96955.94;1019197;29;20019;-70
2024/01/20 02:16:38;;;;;;;2.72;2.30;;;;;;;-9.65;100.00;96952.22;1019270;29;20476;-70
2024/01/20 02:17:09;;;;;;;1.13;1.08;;;;;;;-9.65;100.00;96959.84;1019082;29;20086;-69
2024/01/20 02:17:52;;;;;;;0.20;0.20;;;;;;;-9.68;100.00;96957.50;1019423;29;20068;-70
2024/01/20 02:18:22;;;;;;;0.88;0.88;;;;;;;-9.68;100.00;96957.50;1020327;29;20024;-70
2024/01/20 02:19:03;;;;;;;1.20;1.05;;;;;;;-9.76;100.00;96953.78;1028639;28;20015;-69
2024/01/20 02:19:37;;;;;;;0.84;0.80;;;;;;;-9.77;100.00;96962.28;1027104;28;20173;-70
2024/01/20 02:20:08;;;;;;;1.52;1.42;;;;;;;-9.79;100.00;96951.44;1025017;28;20035;-70
2024/01/20 02:20:39;;;;;;;0.80;0.80;;;;;;;-9.83;100.00;96955.09;1027142;28;20098;-69
2024/01/20 02:21:09;;;;;;;2.10;2.00;;;;;;;-9.85;100.00;96951.06;1024548;28;20115;-69
2024/01/20 02:21:41;;;;;;;0.50;0.50;;;;;;;-9.91;100.00;96947.22;1029059;28;20691;-70
2024/01/20 02:22:12;;;;;;;0.42;0.42;;;;;;;-9.95;100.00;96948.34;1018761;29;20535;-70
2024/01/20 02:22:42;;;;;;;4.26;2.24;;;;;;;-9.93;100.00;96949.03;1014589;29;20111;-69